sensor_id;sensor_type;location;lat;lon;timestamp;P1;durP1;ratioP1;P2;durP2;ratioP2
146;SDS011;45999;48.808;9.182;2023-04-15T00:01:48;9.03;;;4.07;;
146;SDS011;45999;48.808;9.182;2023-04-15T00:04:14;6.10;;;3.73;;
146;SDS011;45999;48.808;9.182;2023-04-15T00:06:41;5.93;;;3.60;;
146;SDS011;45999;48.808;9.182;2023-04-15T00:09:07;6.67;;;3.63;;
146;SDS011;45999;48.808;9.182;2023-04-15T00:11:33;6.53;;;3.70;;
146;SDS011;45999;48.808;9.182;2023-04-15T00:13:59;5.27;;;3.57;;
146;SDS011;45999;48.808;9.182;2023-04-15T00:16:26;4.60;;;3.27;;
146;SDS011;45999;48.808;9.182;2023-04-15T00:18:52;7.20;;;3.80;;
146;SDS011;45999;48.808;9.182;2023-04-15T00:21:18;8.87;;;3.40;;
146;SDS011;45999;48.808;9.182;2023-04-15T00:23:45;6.47;;;3.60;;
146;SDS011;45999;48.808;9.182;2023-04-15T00:26:16;7.37;;;3.60;;
146;SDS011;45999;48.808;9.182;2023-04-15T00:28:43;7.80;;;3.63;;
146;SDS011;45999;48.808;9.182;2023-04-15T00:31:09;10.47;;;3.70;;
146;SDS011;45999;48.808;9.182;2023-04-15T00:33:35;6.20;;;3.60;;
146;SDS011;45999;48.808;9.182;2023-04-15T00:36:02;7.43;;;3.70;;
146;SDS011;45999;48.808;9.182;2023-04-15T00:38:28;6.17;;;3.67;;
146;SDS011;45999;48.808;9.182;2023-04-15T00:40:55;9.03;;;3.67;;
146;SDS011;45999;48.808;9.182;2023-04-15T00:43:21;10.17;;;3.63;;
146;SDS011;45999;48.808;9.182;2023-04-15T00:45:47;5.07;;;3.70;;
146;SDS011;45999;48.808;9.182;2023-04-15T00:48:14;5.63;;;3.30;;
146;SDS011;45999;48.808;9.182;2023-04-15T00:50:41;6.27;;;3.53;;
146;SDS011;45999;48.808;9.182;2023-04-15T00:53:07;7.20;;;3.70;;
146;SDS011;45999;48.808;9.182;2023-04-15T00:55:36;7.10;;;3.50;;
146;SDS011;45999;48.808;9.182;2023-04-15T00:58:03;5.20;;;3.30;;
146;SDS011;45999;48.808;9.182;2023-04-15T01:00:29;7.30;;;4.30;;
146;SDS011;45999;48.808;9.182;2023-04-15T01:02:55;4.83;;;3.60;;
146;SDS011;45999;48.808;9.182;2023-04-15T01:05:22;10.87;;;4.27;;
146;SDS011;45999;48.808;9.182;2023-04-15T01:07:49;6.67;;;3.77;;
146;SDS011;45999;48.808;9.182;2023-04-15T01:10:15;5.43;;;3.77;;
146;SDS011;45999;48.808;9.182;2023-04-15T01:12:41;6.33;;;3.93;;
146;SDS011;45999;48.808;9.182;2023-04-15T01:15:08;5.87;;;3.57;;
146;SDS011;45999;48.808;9.182;2023-04-15T01:17:35;7.57;;;3.87;;
146;SDS011;45999;48.808;9.182;2023-04-15T01:20:02;6.97;;;3.83;;
146;SDS011;45999;48.808;9.182;2023-04-15T01:22:29;6.60;;;3.80;;
146;SDS011;45999;48.808;9.182;2023-04-15T01:25:05;8.03;;;4.10;;
146;SDS011;45999;48.808;9.182;2023-04-15T01:27:33;9.63;;;4.20;;
146;SDS011;45999;48.808;9.182;2023-04-15T01:30:00;8.10;;;4.17;;
146;SDS011;45999;48.808;9.182;2023-04-15T01:32:27;6.83;;;3.97;;
146;SDS011;45999;48.808;9.182;2023-04-15T01:34:54;6.53;;;3.97;;
146;SDS011;45999;48.808;9.182;2023-04-15T01:37:21;4.43;;;3.83;;
146;SDS011;45999;48.808;9.182;2023-04-15T01:39:47;7.83;;;4.50;;
146;SDS011;45999;48.808;9.182;2023-04-15T01:42:13;9.50;;;4.20;;
146;SDS011;45999;48.808;9.182;2023-04-15T01:44:40;8.17;;;4.30;;
146;SDS011;45999;48.808;9.182;2023-04-15T01:47:06;7.87;;;4.43;;
146;SDS011;45999;48.808;9.182;2023-04-15T01:49:32;7.70;;;4.20;;
146;SDS011;45999;48.808;9.182;2023-04-15T01:51:59;7.83;;;4.30;;
146;SDS011;45999;48.808;9.182;2023-04-15T01:54:25;7.43;;;3.73;;
146;SDS011;45999;48.808;9.182;2023-04-15T01:56:52;7.03;;;4.30;;
146;SDS011;45999;48.808;9.182;2023-04-15T01:59:18;9.00;;;4.67;;
146;SDS011;45999;48.808;9.182;2023-04-15T02:01:44;6.63;;;4.20;;
146;SDS011;45999;48.808;9.182;2023-04-15T02:04:11;8.07;;;4.27;;
146;SDS011;45999;48.808;9.182;2023-04-15T02:06:41;7.47;;;4.37;;
146;SDS011;45999;48.808;9.182;2023-04-15T02:09:07;7.37;;;4.67;;
146;SDS011;45999;48.808;9.182;2023-04-15T02:11:33;7.20;;;4.33;;
146;SDS011;45999;48.808;9.182;2023-04-15T02:14:01;11.27;;;4.57;;
146;SDS011;45999;48.808;9.182;2023-04-15T02:16:28;7.10;;;4.40;;
146;SDS011;45999;48.808;9.182;2023-04-15T02:18:54;11.73;;;4.77;;
146;SDS011;45999;48.808;9.182;2023-04-15T02:21:20;9.60;;;4.70;;
146;SDS011;45999;48.808;9.182;2023-04-15T02:23:47;9.50;;;4.70;;
146;SDS011;45999;48.808;9.182;2023-04-15T02:26:13;8.60;;;4.63;;
146;SDS011;45999;48.808;9.182;2023-04-15T02:28:39;9.73;;;5.33;;
146;SDS011;45999;48.808;9.182;2023-04-15T02:31:06;7.80;;;4.57;;
146;SDS011;45999;48.808;9.182;2023-04-15T02:33:33;9.77;;;4.93;;
146;SDS011;45999;48.808;9.182;2023-04-15T02:36:00;8.07;;;4.80;;
146;SDS011;45999;48.808;9.182;2023-04-15T02:38:27;13.93;;;4.60;;
146;SDS011;45999;48.808;9.182;2023-04-15T02:40:53;6.80;;;4.30;;
146;SDS011;45999;48.808;9.182;2023-04-15T02:43:19;8.47;;;4.83;;
146;SDS011;45999;48.808;9.182;2023-04-15T02:45:45;9.97;;;5.17;;
146;SDS011;45999;48.808;9.182;2023-04-15T02:48:12;6.90;;;4.77;;
146;SDS011;45999;48.808;9.182;2023-04-15T02:50:38;8.67;;;4.63;;
146;SDS011;45999;48.808;9.182;2023-04-15T02:53:05;5.67;;;4.60;;
146;SDS011;45999;48.808;9.182;2023-04-15T02:55:31;8.67;;;5.10;;
146;SDS011;45999;48.808;9.182;2023-04-15T02:57:58;7.30;;;4.87;;
146;SDS011;45999;48.808;9.182;2023-04-15T03:00:25;8.03;;;4.83;;
146;SDS011;45999;48.808;9.182;2023-04-15T03:02:51;8.13;;;4.80;;
146;SDS011;45999;48.808;9.182;2023-04-15T03:05:22;8.40;;;5.03;;
146;SDS011;45999;48.808;9.182;2023-04-15T03:07:50;7.53;;;4.63;;
146;SDS011;45999;48.808;9.182;2023-04-15T03:10:16;8.80;;;5.03;;
146;SDS011;45999;48.808;9.182;2023-04-15T03:12:42;8.37;;;4.67;;
146;SDS011;45999;48.808;9.182;2023-04-15T03:15:09;8.83;;;4.53;;
146;SDS011;45999;48.808;9.182;2023-04-15T03:17:35;9.40;;;4.73;;
146;SDS011;45999;48.808;9.182;2023-04-15T03:20:02;7.87;;;4.57;;
146;SDS011;45999;48.808;9.182;2023-04-15T03:22:28;8.50;;;4.53;;
146;SDS011;45999;48.808;9.182;2023-04-15T03:24:55;7.97;;;4.73;;
146;SDS011;45999;48.808;9.182;2023-04-15T03:27:21;6.13;;;4.10;;
146;SDS011;45999;48.808;9.182;2023-04-15T03:29:48;6.83;;;4.23;;
146;SDS011;45999;48.808;9.182;2023-04-15T03:32:14;6.40;;;4.37;;
146;SDS011;45999;48.808;9.182;2023-04-15T03:34:40;6.50;;;4.37;;
146;SDS011;45999;48.808;9.182;2023-04-15T03:37:07;8.87;;;4.73;;
146;SDS011;45999;48.808;9.182;2023-04-15T03:39:33;7.27;;;4.17;;
146;SDS011;45999;48.808;9.182;2023-04-15T03:42:00;8.30;;;4.47;;
146;SDS011;45999;48.808;9.182;2023-04-15T03:44:27;8.97;;;4.83;;
146;SDS011;45999;48.808;9.182;2023-04-15T03:46:53;7.40;;;4.50;;
146;SDS011;45999;48.808;9.182;2023-04-15T03:49:20;6.37;;;4.40;;
146;SDS011;45999;48.808;9.182;2023-04-15T03:51:47;6.63;;;4.60;;
146;SDS011;45999;48.808;9.182;2023-04-15T03:54:13;7.40;;;4.43;;
146;SDS011;45999;48.808;9.182;2023-04-15T03:56:39;6.67;;;4.57;;
146;SDS011;45999;48.808;9.182;2023-04-15T03:59:06;6.07;;;4.40;;
146;SDS011;45999;48.808;9.182;2023-04-15T04:01:32;7.20;;;4.60;;
146;SDS011;45999;48.808;9.182;2023-04-15T04:03:59;8.87;;;5.30;;
146;SDS011;45999;48.808;9.182;2023-04-15T04:06:25;7.17;;;5.00;;
146;SDS011;45999;48.808;9.182;2023-04-15T04:08:51;9.27;;;4.57;;
146;SDS011;45999;48.808;9.182;2023-04-15T04:11:17;7.17;;;5.00;;
146;SDS011;45999;48.808;9.182;2023-04-15T04:13:44;9.43;;;5.80;;
146;SDS011;45999;48.808;9.182;2023-04-15T04:16:11;9.57;;;5.00;;
146;SDS011;45999;48.808;9.182;2023-04-15T04:18:37;9.17;;;5.10;;
146;SDS011;45999;48.808;9.182;2023-04-15T04:21:03;7.47;;;5.30;;
146;SDS011;45999;48.808;9.182;2023-04-15T04:23:29;8.80;;;5.23;;
146;SDS011;45999;48.808;9.182;2023-04-15T04:25:56;8.83;;;5.70;;
146;SDS011;45999;48.808;9.182;2023-04-15T04:28:22;7.30;;;4.90;;
146;SDS011;45999;48.808;9.182;2023-04-15T04:30:48;9.77;;;5.50;;
146;SDS011;45999;48.808;9.182;2023-04-15T04:33:15;7.90;;;5.37;;
146;SDS011;45999;48.808;9.182;2023-04-15T04:35:41;8.40;;;5.20;;
146;SDS011;45999;48.808;9.182;2023-04-15T04:38:07;10.70;;;5.80;;
146;SDS011;45999;48.808;9.182;2023-04-15T04:40:33;6.60;;;4.90;;
146;SDS011;45999;48.808;9.182;2023-04-15T04:43:00;8.13;;;4.60;;
146;SDS011;45999;48.808;9.182;2023-04-15T04:45:26;7.70;;;5.17;;
146;SDS011;45999;48.808;9.182;2023-04-15T04:47:52;8.73;;;5.33;;
146;SDS011;45999;48.808;9.182;2023-04-15T04:50:18;9.30;;;5.17;;
146;SDS011;45999;48.808;9.182;2023-04-15T04:52:45;9.87;;;6.00;;
146;SDS011;45999;48.808;9.182;2023-04-15T04:55:11;6.97;;;5.23;;
146;SDS011;45999;48.808;9.182;2023-04-15T04:57:37;9.17;;;6.30;;
146;SDS011;45999;48.808;9.182;2023-04-15T05:00:05;10.67;;;6.20;;
146;SDS011;45999;48.808;9.182;2023-04-15T05:02:32;7.23;;;5.40;;
146;SDS011;45999;48.808;9.182;2023-04-15T05:04:58;9.40;;;5.57;;
146;SDS011;45999;48.808;9.182;2023-04-15T05:07:25;10.53;;;5.47;;
146;SDS011;45999;48.808;9.182;2023-04-15T05:09:51;10.20;;;5.60;;
146;SDS011;45999;48.808;9.182;2023-04-15T05:12:17;9.00;;;5.60;;
146;SDS011;45999;48.808;9.182;2023-04-15T05:14:44;9.83;;;5.83;;
146;SDS011;45999;48.808;9.182;2023-04-15T05:17:10;9.03;;;5.17;;
146;SDS011;45999;48.808;9.182;2023-04-15T05:19:37;8.40;;;5.80;;
146;SDS011;45999;48.808;9.182;2023-04-15T05:22:03;6.93;;;5.17;;
146;SDS011;45999;48.808;9.182;2023-04-15T05:24:29;7.47;;;5.30;;
146;SDS011;45999;48.808;9.182;2023-04-15T05:26:55;8.50;;;5.30;;
146;SDS011;45999;48.808;9.182;2023-04-15T05:29:22;7.97;;;5.37;;
146;SDS011;45999;48.808;9.182;2023-04-15T05:31:48;8.37;;;5.80;;
146;SDS011;45999;48.808;9.182;2023-04-15T05:34:14;9.07;;;5.50;;
146;SDS011;45999;48.808;9.182;2023-04-15T05:36:41;10.77;;;6.00;;
146;SDS011;45999;48.808;9.182;2023-04-15T05:39:07;7.83;;;5.67;;
146;SDS011;45999;48.808;9.182;2023-04-15T05:41:33;9.47;;;6.03;;
146;SDS011;45999;48.808;9.182;2023-04-15T05:44:00;7.07;;;5.10;;
146;SDS011;45999;48.808;9.182;2023-04-15T05:46:26;7.67;;;6.20;;
146;SDS011;45999;48.808;9.182;2023-04-15T05:48:52;11.20;;;6.37;;
146;SDS011;45999;48.808;9.182;2023-04-15T05:51:19;11.13;;;5.70;;
146;SDS011;45999;48.808;9.182;2023-04-15T05:53:45;9.07;;;6.23;;
146;SDS011;45999;48.808;9.182;2023-04-15T05:56:11;9.73;;;5.73;;
146;SDS011;45999;48.808;9.182;2023-04-15T05:58:38;9.57;;;5.67;;
146;SDS011;45999;48.808;9.182;2023-04-15T06:01:04;6.80;;;5.13;;
146;SDS011;45999;48.808;9.182;2023-04-15T06:03:31;8.23;;;5.33;;
146;SDS011;45999;48.808;9.182;2023-04-15T06:05:57;9.03;;;5.37;;
146;SDS011;45999;48.808;9.182;2023-04-15T06:08:24;8.00;;;5.50;;
146;SDS011;45999;48.808;9.182;2023-04-15T06:10:51;8.67;;;5.40;;
146;SDS011;45999;48.808;9.182;2023-04-15T06:13:18;8.70;;;5.20;;
146;SDS011;45999;48.808;9.182;2023-04-15T06:15:44;8.63;;;4.93;;
146;SDS011;45999;48.808;9.182;2023-04-15T06:18:10;8.70;;;5.00;;
146;SDS011;45999;48.808;9.182;2023-04-15T06:20:37;7.63;;;5.00;;
146;SDS011;45999;48.808;9.182;2023-04-15T06:23:03;7.47;;;4.50;;
146;SDS011;45999;48.808;9.182;2023-04-15T06:25:29;8.73;;;4.80;;
146;SDS011;45999;48.808;9.182;2023-04-15T06:27:55;7.57;;;4.60;;
146;SDS011;45999;48.808;9.182;2023-04-15T06:30:22;9.77;;;4.90;;
146;SDS011;45999;48.808;9.182;2023-04-15T06:32:48;8.87;;;4.70;;
146;SDS011;45999;48.808;9.182;2023-04-15T06:35:14;7.37;;;4.40;;
146;SDS011;45999;48.808;9.182;2023-04-15T06:37:41;11.43;;;4.53;;
146;SDS011;45999;48.808;9.182;2023-04-15T06:40:07;7.73;;;4.33;;
146;SDS011;45999;48.808;9.182;2023-04-15T06:42:34;12.77;;;4.80;;
146;SDS011;45999;48.808;9.182;2023-04-15T06:45:00;7.80;;;4.30;;
146;SDS011;45999;48.808;9.182;2023-04-15T06:47:27;6.23;;;4.10;;
146;SDS011;45999;48.808;9.182;2023-04-15T06:49:53;7.33;;;4.43;;
146;SDS011;45999;48.808;9.182;2023-04-15T06:52:19;5.63;;;3.83;;
146;SDS011;45999;48.808;9.182;2023-04-15T06:54:46;8.67;;;4.30;;
146;SDS011;45999;48.808;9.182;2023-04-15T06:57:12;7.77;;;4.00;;
146;SDS011;45999;48.808;9.182;2023-04-15T06:59:38;6.23;;;4.03;;
146;SDS011;45999;48.808;9.182;2023-04-15T07:02:04;7.93;;;4.10;;
146;SDS011;45999;48.808;9.182;2023-04-15T07:04:33;8.83;;;4.20;;
146;SDS011;45999;48.808;9.182;2023-04-15T07:06:59;5.53;;;4.03;;
146;SDS011;45999;48.808;9.182;2023-04-15T07:09:26;8.87;;;4.50;;
146;SDS011;45999;48.808;9.182;2023-04-15T07:11:52;5.90;;;4.13;;
146;SDS011;45999;48.808;9.182;2023-04-15T07:14:19;6.67;;;4.00;;
146;SDS011;45999;48.808;9.182;2023-04-15T07:16:45;6.83;;;3.87;;
146;SDS011;45999;48.808;9.182;2023-04-15T07:19:11;4.63;;;3.63;;
146;SDS011;45999;48.808;9.182;2023-04-15T07:21:37;6.27;;;3.70;;
146;SDS011;45999;48.808;9.182;2023-04-15T07:24:04;5.77;;;3.60;;
146;SDS011;45999;48.808;9.182;2023-04-15T07:26:30;6.57;;;4.03;;
146;SDS011;45999;48.808;9.182;2023-04-15T07:28:56;6.10;;;4.00;;
146;SDS011;45999;48.808;9.182;2023-04-15T07:31:23;5.90;;;4.03;;
146;SDS011;45999;48.808;9.182;2023-04-15T07:33:49;7.13;;;4.00;;
146;SDS011;45999;48.808;9.182;2023-04-15T07:36:15;8.17;;;4.10;;
146;SDS011;45999;48.808;9.182;2023-04-15T07:38:42;7.90;;;4.13;;
146;SDS011;45999;48.808;9.182;2023-04-15T07:41:08;8.23;;;3.83;;
146;SDS011;45999;48.808;9.182;2023-04-15T07:43:35;6.87;;;3.70;;
146;SDS011;45999;48.808;9.182;2023-04-15T07:46:02;6.27;;;4.20;;
146;SDS011;45999;48.808;9.182;2023-04-15T07:48:28;8.07;;;3.93;;
146;SDS011;45999;48.808;9.182;2023-04-15T07:50:55;8.90;;;3.93;;
146;SDS011;45999;48.808;9.182;2023-04-15T07:53:21;5.90;;;3.63;;
146;SDS011;45999;48.808;9.182;2023-04-15T07:55:47;7.83;;;3.90;;
146;SDS011;45999;48.808;9.182;2023-04-15T07:58:14;5.17;;;3.73;;
146;SDS011;45999;48.808;9.182;2023-04-15T08:00:41;6.67;;;4.13;;
146;SDS011;45999;48.808;9.182;2023-04-15T08:03:07;5.37;;;3.70;;
146;SDS011;45999;48.808;9.182;2023-04-15T08:05:33;5.67;;;3.67;;
146;SDS011;45999;48.808;9.182;2023-04-15T08:08:00;5.87;;;3.40;;
146;SDS011;45999;48.808;9.182;2023-04-15T08:10:27;7.60;;;3.97;;
146;SDS011;45999;48.808;9.182;2023-04-15T08:12:54;7.07;;;3.90;;
146;SDS011;45999;48.808;9.182;2023-04-15T08:15:21;4.47;;;3.50;;
146;SDS011;45999;48.808;9.182;2023-04-15T08:17:47;7.47;;;3.80;;
146;SDS011;45999;48.808;9.182;2023-04-15T08:20:13;6.67;;;3.23;;
146;SDS011;45999;48.808;9.182;2023-04-15T08:22:40;6.30;;;4.13;;
146;SDS011;45999;48.808;9.182;2023-04-15T08:25:06;9.03;;;3.80;;
146;SDS011;45999;48.808;9.182;2023-04-15T08:27:33;5.73;;;3.80;;
146;SDS011;45999;48.808;9.182;2023-04-15T08:29:59;6.77;;;4.10;;
146;SDS011;45999;48.808;9.182;2023-04-15T08:32:25;4.57;;;3.80;;
146;SDS011;45999;48.808;9.182;2023-04-15T08:34:52;10.80;;;3.97;;
146;SDS011;45999;48.808;9.182;2023-04-15T08:37:18;10.00;;;3.97;;
146;SDS011;45999;48.808;9.182;2023-04-15T08:39:44;6.87;;;3.33;;
146;SDS011;45999;48.808;9.182;2023-04-15T08:42:11;5.70;;;3.60;;
146;SDS011;45999;48.808;9.182;2023-04-15T08:44:39;6.37;;;4.03;;
146;SDS011;45999;48.808;9.182;2023-04-15T08:47:06;5.50;;;3.80;;
146;SDS011;45999;48.808;9.182;2023-04-15T08:49:34;7.63;;;4.00;;
146;SDS011;45999;48.808;9.182;2023-04-15T08:52:00;6.27;;;3.47;;
146;SDS011;45999;48.808;9.182;2023-04-15T08:54:28;6.50;;;4.00;;
146;SDS011;45999;48.808;9.182;2023-04-15T08:56:56;5.30;;;3.63;;
146;SDS011;45999;48.808;9.182;2023-04-15T08:59:22;6.63;;;3.30;;
146;SDS011;45999;48.808;9.182;2023-04-15T09:01:49;6.27;;;3.50;;
146;SDS011;45999;48.808;9.182;2023-04-15T09:04:16;5.67;;;3.20;;
146;SDS011;45999;48.808;9.182;2023-04-15T09:06:42;6.17;;;3.20;;
146;SDS011;45999;48.808;9.182;2023-04-15T09:09:08;5.07;;;2.63;;
146;SDS011;45999;48.808;9.182;2023-04-15T09:11:34;6.83;;;3.00;;
146;SDS011;45999;48.808;9.182;2023-04-15T09:14:01;5.97;;;2.40;;
146;SDS011;45999;48.808;9.182;2023-04-15T09:16:27;5.97;;;2.37;;
146;SDS011;45999;48.808;9.182;2023-04-15T09:18:53;5.83;;;2.63;;
146;SDS011;45999;48.808;9.182;2023-04-15T09:21:20;5.43;;;2.60;;
146;SDS011;45999;48.808;9.182;2023-04-15T09:23:54;3.47;;;2.20;;
146;SDS011;45999;48.808;9.182;2023-04-15T09:26:33;2.93;;;2.00;;
146;SDS011;45999;48.808;9.182;2023-04-15T09:29:06;3.77;;;2.33;;
146;SDS011;45999;48.808;9.182;2023-04-15T09:31:33;2.90;;;2.27;;
146;SDS011;45999;48.808;9.182;2023-04-15T09:34:00;2.87;;;2.50;;
146;SDS011;45999;48.808;9.182;2023-04-15T09:36:26;4.47;;;2.80;;
146;SDS011;45999;48.808;9.182;2023-04-15T09:38:58;5.43;;;2.70;;
146;SDS011;45999;48.808;9.182;2023-04-15T09:41:24;4.00;;;2.47;;
146;SDS011;45999;48.808;9.182;2023-04-15T09:43:51;4.37;;;2.43;;
146;SDS011;45999;48.808;9.182;2023-04-15T09:46:17;4.43;;;2.40;;
146;SDS011;45999;48.808;9.182;2023-04-15T09:48:44;2.10;;;1.90;;
146;SDS011;45999;48.808;9.182;2023-04-15T09:51:10;4.00;;;2.13;;
146;SDS011;45999;48.808;9.182;2023-04-15T09:53:36;2.90;;;2.30;;
146;SDS011;45999;48.808;9.182;2023-04-15T09:56:03;3.77;;;1.83;;
146;SDS011;45999;48.808;9.182;2023-04-15T09:58:32;3.97;;;2.00;;
146;SDS011;45999;48.808;9.182;2023-04-15T10:00:59;4.80;;;1.87;;
146;SDS011;45999;48.808;9.182;2023-04-15T10:03:27;2.83;;;1.77;;
146;SDS011;45999;48.808;9.182;2023-04-15T10:05:57;3.00;;;2.30;;
146;SDS011;45999;48.808;9.182;2023-04-15T10:08:24;5.30;;;2.40;;
146;SDS011;45999;48.808;9.182;2023-04-15T10:10:50;2.67;;;1.97;;
146;SDS011;45999;48.808;9.182;2023-04-15T10:13:18;3.83;;;2.37;;
146;SDS011;45999;48.808;9.182;2023-04-15T10:15:46;4.03;;;2.20;;
146;SDS011;45999;48.808;9.182;2023-04-15T10:18:14;3.07;;;2.10;;
146;SDS011;45999;48.808;9.182;2023-04-15T10:20:41;3.10;;;2.30;;
146;SDS011;45999;48.808;9.182;2023-04-15T10:23:08;4.83;;;2.20;;
146;SDS011;45999;48.808;9.182;2023-04-15T10:25:35;6.40;;;2.57;;
146;SDS011;45999;48.808;9.182;2023-04-15T10:28:01;4.33;;;2.60;;
146;SDS011;45999;48.808;9.182;2023-04-15T10:30:28;4.97;;;2.50;;
146;SDS011;45999;48.808;9.182;2023-04-15T10:32:55;3.10;;;2.37;;
146;SDS011;45999;48.808;9.182;2023-04-15T10:35:22;5.53;;;3.00;;
146;SDS011;45999;48.808;9.182;2023-04-15T10:37:48;5.10;;;2.43;;
146;SDS011;45999;48.808;9.182;2023-04-15T10:40:24;4.13;;;2.50;;
146;SDS011;45999;48.808;9.182;2023-04-15T10:42:52;3.30;;;1.87;;
146;SDS011;45999;48.808;9.182;2023-04-15T10:45:19;3.23;;;2.30;;
146;SDS011;45999;48.808;9.182;2023-04-15T10:47:45;2.90;;;2.07;;
146;SDS011;45999;48.808;9.182;2023-04-15T10:50:11;5.70;;;2.50;;
146;SDS011;45999;48.808;9.182;2023-04-15T10:52:40;2.60;;;2.30;;
146;SDS011;45999;48.808;9.182;2023-04-15T10:55:13;4.57;;;2.50;;
146;SDS011;45999;48.808;9.182;2023-04-15T10:57:41;3.00;;;2.30;;
146;SDS011;45999;48.808;9.182;2023-04-15T11:05:11;3.20;;;2.47;;
146;SDS011;45999;48.808;9.182;2023-04-15T11:12:46;4.43;;;2.90;;
146;SDS011;45999;48.808;9.182;2023-04-15T11:17:58;6.33;;;3.10;;
146;SDS011;45999;48.808;9.182;2023-04-15T11:20:25;3.80;;;2.73;;
146;SDS011;45999;48.808;9.182;2023-04-15T11:22:53;3.97;;;2.50;;
146;SDS011;45999;48.808;9.182;2023-04-15T11:25:26;3.43;;;2.27;;
146;SDS011;45999;48.808;9.182;2023-04-15T11:27:53;3.07;;;2.10;;
146;SDS011;45999;48.808;9.182;2023-04-15T11:30:26;4.23;;;2.40;;
146;SDS011;45999;48.808;9.182;2023-04-15T11:32:59;4.80;;;2.57;;
146;SDS011;45999;48.808;9.182;2023-04-15T11:35:26;4.83;;;2.23;;
146;SDS011;45999;48.808;9.182;2023-04-15T11:37:52;4.30;;;2.67;;
146;SDS011;45999;48.808;9.182;2023-04-15T11:40:23;4.67;;;2.40;;
146;SDS011;45999;48.808;9.182;2023-04-15T11:45:31;5.03;;;2.90;;
146;SDS011;45999;48.808;9.182;2023-04-15T11:48:04;4.27;;;2.57;;
146;SDS011;45999;48.808;9.182;2023-04-15T11:50:30;2.80;;;2.47;;
146;SDS011;45999;48.808;9.182;2023-04-15T11:52:57;6.43;;;2.77;;
146;SDS011;45999;48.808;9.182;2023-04-15T11:55:25;3.93;;;2.30;;
146;SDS011;45999;48.808;9.182;2023-04-15T12:00:33;3.97;;;2.47;;
146;SDS011;45999;48.808;9.182;2023-04-15T12:03:12;5.07;;;3.00;;
146;SDS011;45999;48.808;9.182;2023-04-15T12:08:24;4.50;;;2.63;;
146;SDS011;45999;48.808;9.182;2023-04-15T12:10:50;5.70;;;2.80;;
146;SDS011;45999;48.808;9.182;2023-04-15T12:13:16;4.23;;;2.50;;
146;SDS011;45999;48.808;9.182;2023-04-15T12:15:42;4.53;;;2.70;;
146;SDS011;45999;48.808;9.182;2023-04-15T12:18:15;2.20;;;2.00;;
146;SDS011;45999;48.808;9.182;2023-04-15T12:20:42;6.27;;;2.60;;
146;SDS011;45999;48.808;9.182;2023-04-15T12:23:09;3.70;;;2.50;;
146;SDS011;45999;48.808;9.182;2023-04-15T12:25:35;5.53;;;2.70;;
146;SDS011;45999;48.808;9.182;2023-04-15T12:28:09;3.30;;;2.27;;
146;SDS011;45999;48.808;9.182;2023-04-15T12:30:35;3.90;;;2.87;;
146;SDS011;45999;48.808;9.182;2023-04-15T12:33:01;6.90;;;3.30;;
146;SDS011;45999;48.808;9.182;2023-04-15T12:35:28;5.63;;;4.00;;
146;SDS011;45999;48.808;9.182;2023-04-15T12:37:55;6.13;;;4.30;;
146;SDS011;45999;48.808;9.182;2023-04-15T12:40:21;5.90;;;4.47;;
146;SDS011;45999;48.808;9.182;2023-04-15T12:42:47;4.50;;;4.00;;
146;SDS011;45999;48.808;9.182;2023-04-15T12:45:13;4.33;;;3.93;;
146;SDS011;45999;48.808;9.182;2023-04-15T12:47:40;4.67;;;3.73;;
146;SDS011;45999;48.808;9.182;2023-04-15T12:50:06;5.80;;;4.77;;
146;SDS011;45999;48.808;9.182;2023-04-15T12:52:32;6.80;;;4.80;;
146;SDS011;45999;48.808;9.182;2023-04-15T12:54:59;4.70;;;3.40;;
146;SDS011;45999;48.808;9.182;2023-04-15T12:57:25;4.87;;;3.80;;
146;SDS011;45999;48.808;9.182;2023-04-15T12:59:51;4.90;;;3.53;;
146;SDS011;45999;48.808;9.182;2023-04-15T13:02:18;3.83;;;3.33;;
146;SDS011;45999;48.808;9.182;2023-04-15T13:04:45;3.30;;;2.93;;
146;SDS011;45999;48.808;9.182;2023-04-15T13:07:11;4.50;;;3.57;;
146;SDS011;45999;48.808;9.182;2023-04-15T13:09:39;3.93;;;2.70;;
146;SDS011;45999;48.808;9.182;2023-04-15T13:12:05;5.83;;;2.90;;
146;SDS011;45999;48.808;9.182;2023-04-15T13:14:32;3.03;;;2.40;;
146;SDS011;45999;48.808;9.182;2023-04-15T13:16:58;3.83;;;2.10;;
146;SDS011;45999;48.808;9.182;2023-04-15T13:19:24;4.73;;;2.33;;
146;SDS011;45999;48.808;9.182;2023-04-15T13:21:50;4.13;;;2.20;;
146;SDS011;45999;48.808;9.182;2023-04-15T13:24:17;3.00;;;2.30;;
146;SDS011;45999;48.808;9.182;2023-04-15T13:26:43;3.03;;;2.47;;
146;SDS011;45999;48.808;9.182;2023-04-15T13:29:09;2.87;;;1.90;;
146;SDS011;45999;48.808;9.182;2023-04-15T13:31:36;4.23;;;2.10;;
146;SDS011;45999;48.808;9.182;2023-04-15T13:34:02;2.00;;;1.43;;
146;SDS011;45999;48.808;9.182;2023-04-15T13:36:28;3.20;;;1.70;;
146;SDS011;45999;48.808;9.182;2023-04-15T13:38:55;2.83;;;1.23;;
146;SDS011;45999;48.808;9.182;2023-04-15T13:41:21;1.87;;;1.50;;
146;SDS011;45999;48.808;9.182;2023-04-15T13:43:47;1.60;;;1.00;;
146;SDS011;45999;48.808;9.182;2023-04-15T13:46:14;1.63;;;1.20;;
146;SDS011;45999;48.808;9.182;2023-04-15T13:48:40;1.40;;;0.83;;
146;SDS011;45999;48.808;9.182;2023-04-15T13:51:06;1.63;;;0.90;;
146;SDS011;45999;48.808;9.182;2023-04-15T13:53:33;1.27;;;0.90;;
146;SDS011;45999;48.808;9.182;2023-04-15T13:56:00;1.80;;;1.13;;
146;SDS011;45999;48.808;9.182;2023-04-15T13:58:26;1.60;;;1.23;;
146;SDS011;45999;48.808;9.182;2023-04-15T14:00:52;1.93;;;1.30;;
146;SDS011;45999;48.808;9.182;2023-04-15T14:03:18;2.13;;;0.93;;
146;SDS011;45999;48.808;9.182;2023-04-15T14:05:45;1.70;;;1.07;;
146;SDS011;45999;48.808;9.182;2023-04-15T14:08:11;1.27;;;1.00;;
146;SDS011;45999;48.808;9.182;2023-04-15T14:10:37;1.63;;;0.80;;
146;SDS011;45999;48.808;9.182;2023-04-15T14:13:03;1.90;;;1.00;;
146;SDS011;45999;48.808;9.182;2023-04-15T14:15:30;1.53;;;1.10;;
146;SDS011;45999;48.808;9.182;2023-04-15T14:17:56;1.43;;;1.00;;
146;SDS011;45999;48.808;9.182;2023-04-15T14:20:22;2.13;;;1.20;;
146;SDS011;45999;48.808;9.182;2023-04-15T14:22:48;2.33;;;1.27;;
146;SDS011;45999;48.808;9.182;2023-04-15T14:25:15;2.37;;;0.93;;
146;SDS011;45999;48.808;9.182;2023-04-15T14:27:41;0.80;;;0.80;;
146;SDS011;45999;48.808;9.182;2023-04-15T14:30:07;2.10;;;1.00;;
146;SDS011;45999;48.808;9.182;2023-04-15T14:32:34;2.30;;;1.03;;
146;SDS011;45999;48.808;9.182;2023-04-15T14:35:00;0.97;;;0.80;;
146;SDS011;45999;48.808;9.182;2023-04-15T14:37:26;1.00;;;0.90;;
146;SDS011;45999;48.808;9.182;2023-04-15T14:39:53;1.40;;;0.77;;
146;SDS011;45999;48.808;9.182;2023-04-15T14:42:19;2.10;;;0.90;;
146;SDS011;45999;48.808;9.182;2023-04-15T14:44:45;1.30;;;0.90;;
146;SDS011;45999;48.808;9.182;2023-04-15T14:47:11;2.37;;;1.10;;
146;SDS011;45999;48.808;9.182;2023-04-15T14:49:38;1.87;;;0.97;;
146;SDS011;45999;48.808;9.182;2023-04-15T14:52:04;2.53;;;1.00;;
146;SDS011;45999;48.808;9.182;2023-04-15T14:54:30;2.57;;;1.20;;
146;SDS011;45999;48.808;9.182;2023-04-15T14:56:57;1.57;;;1.20;;
146;SDS011;45999;48.808;9.182;2023-04-15T14:59:23;2.43;;;1.13;;
146;SDS011;45999;48.808;9.182;2023-04-15T15:01:50;1.43;;;1.33;;
146;SDS011;45999;48.808;9.182;2023-04-15T15:04:16;2.23;;;1.23;;
146;SDS011;45999;48.808;9.182;2023-04-15T15:06:42;1.77;;;1.30;;
146;SDS011;45999;48.808;9.182;2023-04-15T15:09:08;2.17;;;1.20;;
146;SDS011;45999;48.808;9.182;2023-04-15T15:11:35;1.93;;;1.40;;
146;SDS011;45999;48.808;9.182;2023-04-15T15:14:01;3.73;;;1.40;;
146;SDS011;45999;48.808;9.182;2023-04-15T15:16:27;2.53;;;1.40;;
146;SDS011;45999;48.808;9.182;2023-04-15T15:18:54;3.40;;;1.50;;
146;SDS011;45999;48.808;9.182;2023-04-15T15:21:20;2.60;;;1.37;;
146;SDS011;45999;48.808;9.182;2023-04-15T15:23:46;2.27;;;1.40;;
146;SDS011;45999;48.808;9.182;2023-04-15T15:26:12;1.73;;;1.23;;
146;SDS011;45999;48.808;9.182;2023-04-15T15:28:39;2.73;;;1.23;;
146;SDS011;45999;48.808;9.182;2023-04-15T15:31:06;1.33;;;1.23;;
146;SDS011;45999;48.808;9.182;2023-04-15T15:33:32;1.77;;;1.50;;